Capt. Harry — WDC3690 — position and weather

sailwx.info

Track history (hours):
 
Tides and Currents Weather Stations Pressure Air Temp Water Temp Dewpoint Dewpoint Depression Visibility Wind Speed Wind Dir Waves Ship Positions

Capt. Harry

Owner: Wilmington Tug, Inc., New Castle, DE. More information available from US FCC via Universal Licensing System and Coast Guard Vessel Documentation Center.

Last reported at 2015-Apr-02 07:34 UTC. Time now 2015-Apr-02 07:50 UTC.
Position N 39°53' W 075°10'.

Type: Tug. MMSI: 367012530.

Date/timePositionNaut miles runAvg speedWind from/ knotsBaromVisibWave heightAir tempDewpointWater temp
2015-Apr-02 07:34N 39°53' W 075°10'1 1.1
2015-Apr-02 06:33N 39°53' W 075°11'0 0.0
2015-Apr-02 05:33N 39°53' W 075°11'0 0.0
2015-Apr-02 04:34N 39°53' W 075°11'0 0.0
2015-Apr-02 03:34N 39°53' W 075°11'0 0.0
2015-Apr-02 02:33N 39°53' W 075°11'0 0.0
2015-Apr-02 01:33N 39°53' W 075°11'7 6.6
2015-Apr-02 00:33N 39°51' W 075°19'1 0.8
2015-Apr-01 23:33N 39°51' W 075°20'3 3.4
2015-Apr-01 22:33N 39°51' W 075°16'0 0.0
2015-Apr-01 21:33N 39°51' W 075°16'0 0.0
2015-Apr-01 20:33N 39°51' W 075°16'0 0.0
2015-Apr-01 19:33N 39°51' W 075°16'0 0.3
2015-Apr-01 18:33N 39°51' W 075°16'1 1.2
2015-Apr-01 17:31N 39°51' W 075°18'6 6.0
2015-Apr-01 16:33N 39°48' W 075°25'7 6.6
2015-Apr-01 15:33N 39°43' W 075°30'1 0.8
2015-Apr-01 14:33N 39°43' W 075°31'0 0.0
2015-Apr-01 13:33N 39°43' W 075°31'0 0.0
2015-Apr-01 12:33N 39°43' W 075°31'0 0.0
2015-Apr-01 11:33N 39°43' W 075°31'0 0.3
2015-Apr-01 10:33N 39°43' W 075°31'0 0.0
2015-Apr-01 09:33N 39°43' W 075°31'0 0.0
2015-Apr-01 08:33N 39°43' W 075°31'0 0.0
2015-Apr-01 07:33N 39°43' W 075°31'0 0.0
2015-Apr-01 06:33N 39°43' W 075°31'8 7.8
2015-Apr-01 05:33N 39°49' W 075°24'4 4.0
2015-Apr-01 04:33N 39°51' W 075°20'3 2.6
2015-Apr-01 03:33N 39°49' W 075°23'7 6.8
2015-Apr-01 02:33N 39°45' W 075°29'2 2.2
2015-Apr-01 01:33N 39°43' W 075°31'0 0.0
2015-Apr-01 00:33N 39°43' W 075°31'0 0.0
2015-Mar-31 23:33N 39°43' W 075°31'0 0.0
2015-Mar-31 22:33N 39°43' W 075°31'0 0.0
2015-Mar-31 21:33N 39°43' W 075°31'0 0.0
2015-Mar-31 20:33N 39°43' W 075°31'0 0.0
2015-Mar-31 19:33N 39°43' W 075°31'0 0.0
2015-Mar-31 18:33N 39°43' W 075°31'0 0.0
2015-Mar-31 17:33N 39°43' W 075°31'0 0.2
2015-Mar-31 16:33N 39°43' W 075°31'0 0.2
2015-Mar-31 15:33N 39°43' W 075°31'0 0.0
2015-Mar-31 14:33N 39°43' W 075°31'5 5.3
2015-Mar-31 13:33N 39°47' W 075°27'9 8.6
2015-Mar-31 12:33N 39°51' W 075°17'1 0.7
2015-Mar-31 11:33N 39°51' W 075°16'3 2.9
2015-Mar-31 10:33N 39°51' W 075°19'0 0.0
2015-Mar-31 09:33N 39°51' W 075°19'1 0.8
2015-Mar-31 08:33N 39°51' W 075°20'3 3.5
2015-Mar-31 07:33N 39°51' W 075°16'0 0.0
2015-Mar-31 06:33N 39°51' W 075°16'0 0.0
2015-Mar-31 05:33N 39°51' W 075°16'0 0.3
2015-Mar-31 04:33N 39°51' W 075°16'0 0.3
2015-Mar-31 03:33N 39°51' W 075°16'0 0.0
2015-Mar-31 02:33N 39°51' W 075°16'0 0.0
2015-Mar-31 01:33N 39°51' W 075°16'0 0.0
2015-Mar-31 00:33N 39°51' W 075°16'0 0.0
2015-Mar-30 23:33N 39°51' W 075°16'0 0.0
2015-Mar-30 22:33N 39°51' W 075°16'0 0.2
2015-Mar-30 21:33N 39°51' W 075°16'0 0.1
2015-Mar-30 20:33N 39°51' W 075°16'8 8.3
2015-Mar-30 19:33N 39°57' W 075°08'3 2.8
2015-Mar-30 18:34N 39°59' W 075°06'0 0.0
2015-Mar-30 17:33N 39°59' W 075°06'0 0.0
2015-Mar-30 16:33N 39°59' W 075°06'0 0.0
2015-Mar-30 15:33N 39°59' W 075°06'7 6.9
2015-Mar-30 14:33N 39°53' W 075°11'0 0.0
2015-Mar-30 13:33N 39°53' W 075°11'0 0.0
2015-Mar-30 12:34N 39°53' W 075°11'0 0.0
2015-Mar-30 11:33N 39°53' W 075°11'1 1.2
2015-Mar-30 10:34N 39°53' W 075°10'1 1.3
2015-Mar-30 09:34N 39°53' W 075°11'0 0.2
2015-Mar-30 08:33N 39°53' W 075°11'0 0.0
2015-Mar-30 07:33N 39°53' W 075°11'0 0.0
2015-Mar-30 06:33N 39°53' W 075°11'0 0.0
2015-Mar-30 05:34N 39°53' W 075°11'0 0.0
2015-Mar-30 04:33N 39°53' W 075°11'0 0.0
2015-Mar-30 03:33N 39°53' W 075°11'0 0.0
2015-Mar-30 02:33N 39°53' W 075°11'0 0.0
2015-Mar-30 01:33N 39°53' W 075°11'0 0.0
2015-Mar-30 00:33N 39°53' W 075°11'3 2.8
2015-Mar-29 23:33N 39°54' W 075°08'5 4.6
2015-Mar-29 22:33N 39°59' W 075°06'4 4.5
2015-Mar-29 21:33N 39°54' W 075°08'5 5.4
2015-Mar-29 20:33N 39°52' W 075°14'2 1.7
2015-Mar-29 19:33N 39°51' W 075°16'0 0.0
2015-Mar-29 18:33N 39°51' W 075°16'0 0.0
2015-Mar-29 17:33N 39°51' W 075°16'0 0.0
2015-Mar-29 16:33N 39°51' W 075°16'0 0.0
2015-Mar-29 15:33N 39°51' W 075°16'0 0.0
2015-Mar-29 14:33N 39°51' W 075°16'0 0.0
2015-Mar-29 13:33N 39°51' W 075°16'0 0.0
2015-Mar-29 12:33N 39°51' W 075°16'0 0.0
2015-Mar-29 11:33N 39°51' W 075°16'0 0.0
2015-Mar-29 10:33N 39°51' W 075°16'0 0.0
2015-Mar-29 09:33N 39°51' W 075°16'2 1.7
2015-Mar-29 08:33N 39°51' W 075°14'3 2.7
2015-Mar-29 07:33N 39°53' W 075°11'0 0.0
2015-Mar-29 06:33N 39°53' W 075°11'0 0.0
2015-Mar-29 05:33N 39°53' W 075°11'0 0.0
2015-Mar-29 04:33N 39°53' W 075°11'0 0.0
2015-Mar-29 03:33N 39°53' W 075°11'0 0.0
2015-Mar-29 02:33N 39°53' W 075°11'0 0.0
2015-Mar-29 01:33N 39°53' W 075°11'0 0.0
2015-Mar-29 00:33N 39°53' W 075°11'0 0.0
2015-Mar-28 23:33N 39°53' W 075°11'1 1.1
2015-Mar-28 22:33N 39°54' W 075°12'4 4.2
2015-Mar-28 21:33N 39°51' W 075°17'2 2.1
2015-Mar-28 20:33N 39°51' W 075°19'5 4.7
2015-Mar-28 19:33N 39°49' W 075°24'0 0.4
2015-Mar-28 18:33N 39°49' W 075°25'0 0.0
2015-Mar-28 17:33N 39°49' W 075°25'0 0.0
2015-Mar-28 16:33N 39°49' W 075°25'0 0.0
2015-Mar-28 15:33N 39°49' W 075°25'0 0.0
2015-Mar-28 14:33N 39°49' W 075°25'0 0.0
2015-Mar-28 13:33N 39°49' W 075°25'0 0.0
2015-Mar-28 12:33N 39°49' W 075°25'0 0.0
2015-Mar-28 11:33N 39°49' W 075°25'0 0.0
2015-Mar-28 10:33N 39°49' W 075°25'0 0.0
2015-Mar-28 09:33N 39°49' W 075°25'0 0.0
2015-Mar-28 08:33N 39°49' W 075°25'0 0.0
2015-Mar-28 07:33N 39°49' W 075°25'0 0.1
2015-Mar-28 06:33N 39°49' W 075°25'0 0.1
2015-Mar-28 05:33N 39°49' W 075°25'0 0.0
2015-Mar-28 04:33N 39°49' W 075°25'0 0.0
2015-Mar-28 03:33N 39°49' W 075°25'0 0.0
2015-Mar-28 02:33N 39°49' W 075°25'0 0.0
2015-Mar-28 01:33N 39°49' W 075°25'0 0.4
2015-Mar-28 00:33N 39°49' W 075°24'0 0.4
2015-Mar-27 23:33N 39°49' W 075°25'0 0.0
2015-Mar-27 22:33N 39°49' W 075°25'0 0.0
2015-Mar-27 21:33N 39°49' W 075°25'0 0.0
2015-Mar-27 20:33N 39°49' W 075°25'0 0.0
2015-Mar-27 19:33N 39°49' W 075°25'0 0.0
2015-Mar-27 18:33N 39°49' W 075°25'0 0.0
2015-Mar-27 17:33N 39°49' W 075°25'0 0.0
2015-Mar-27 16:34N 39°49' W 075°25'0 0.0
2015-Mar-27 15:34N 39°49' W 075°25'0 0.0
2015-Mar-27 14:34N 39°49' W 075°25'0 0.0
2015-Mar-27 13:33N 39°49' W 075°25'0 0.0
2015-Mar-27 12:34N 39°49' W 075°25'0 0.0
2015-Mar-27 11:33N 39°49' W 075°25'4 4.2
2015-Mar-27 10:33N 39°51' W 075°20'1 1.4
2015-Mar-27 09:33N 39°50' W 075°22'3 2.8
2015-Mar-27 08:33N 39°49' W 075°25'0 0.0
2015-Mar-27 07:33N 39°49' W 075°25'0 0.2
2015-Mar-27 06:33N 39°49' W 075°25'0 0.2
2015-Mar-27 05:33N 39°49' W 075°25'0 0.0
2015-Mar-27 04:33N 39°49' W 075°25'0 0.0
2015-Mar-27 03:33N 39°49' W 075°25'0 0.0
2015-Mar-27 02:34N 39°49' W 075°25'0 0.0
2015-Mar-27 01:33N 39°49' W 075°25'4 3.5
2015-Mar-27 00:33N 39°51' W 075°21'1 1.0
2015-Mar-26 23:33N 39°51' W 075°20'3 3.3
2015-Mar-26 22:33N 39°51' W 075°16'0 0.0
2015-Mar-26 21:33N 39°51' W 075°16'0 0.0
2015-Mar-26 20:33N 39°51' W 075°16'0 0.0
2015-Mar-26 19:33N 39°51' W 075°16'0 0.0
2015-Mar-26 18:33N 39°51' W 075°16'0 0.0
2015-Mar-26 17:33N 39°51' W 075°16'0 0.0
2015-Mar-26 16:33N 39°51' W 075°16'0 0.2
2015-Mar-26 15:33N 39°51' W 075°16'4 4.1
2015-Mar-26 14:33N 39°53' W 075°11'0 0.0
2015-Mar-26 13:33N 39°53' W 075°11'0 0.0
2015-Mar-26 12:34N 39°53' W 075°11'0 0.0
2015-Mar-26 11:34N 39°53' W 075°11'0 0.0
2015-Mar-26 10:34N 39°53' W 075°11'0 0.0
2015-Mar-26 09:34N 39°53' W 075°11'0 0.0
2015-Mar-26 08:34N 39°53' W 075°11'0 0.0
2015-Mar-26 07:34N 39°53' W 075°11'0 0.0
2015-Mar-26 06:34N 39°53' W 075°11'0 0.0
2015-Mar-26 05:34N 39°53' W 075°11'0 0.0
2015-Mar-26 04:34N 39°53' W 075°11'0 0.0
2015-Mar-26 03:34N 39°53' W 075°11'0 0.0
2015-Mar-26 02:34N 39°53' W 075°11'0 0.0
2015-Mar-26 01:34N 39°53' W 075°11'0 0.0
2015-Mar-26 00:34N 39°53' W 075°11'0 0.0
2015-Mar-25 23:33N 39°53' W 075°11'0 0.0
2015-Mar-25 22:33N 39°53' W 075°11'0 0.0
2015-Mar-25 21:33N 39°53' W 075°11'0 0.0
2015-Mar-25 20:34N 39°53' W 075°11'0 0.0
2015-Mar-25 19:34N 39°53' W 075°11'0 0.0
2015-Mar-25 18:34N 39°53' W 075°11'0 0.0
2015-Mar-25 17:34N 39°53' W 075°11'0 0.0
2015-Mar-25 16:34N 39°53' W 075°11'0 0.0
2015-Mar-25 15:34N 39°53' W 075°11'4 0.1
2015-Mar-24 04:33N 39°56' W 075°08'1 1.1
2015-Mar-24 03:33N 39°55' W 075°08'4 3.7
2015-Mar-24 02:33N 39°59' W 075°06'0 0.0
2015-Mar-24 01:33N 39°59' W 075°06'0 0.0
2015-Mar-24 00:33N 39°59' W 075°06'0 0.0
2015-Mar-23 23:33N 39°59' W 075°06'0 0.0
2015-Mar-23 22:33N 39°59' W 075°06'1 0.6
2015-Mar-23 21:33N 39°58' W 075°07'6 5.8
2015-Mar-23 20:33N 39°53' W 075°10'5 5.1
2015-Mar-23 19:33N 39°51' W 075°16'0 0.0
2015-Mar-23 18:32N 39°51' W 075°16'0 0.0
2015-Mar-23 17:33N 39°51' W 075°16'0 0.0
2015-Mar-23 16:33N 39°51' W 075°16'0 0.0
2015-Mar-23 15:34N 39°51' W 075°16'0 0.0
2015-Mar-23 14:34N 39°51' W 075°16'0 0.0
2015-Mar-23 13:33N 39°51' W 075°16'0 0.0
2015-Mar-23 12:33N 39°51' W 075°16'0 0.0
2015-Mar-23 11:33N 39°51' W 075°16'0 0.0
2015-Mar-23 10:33N 39°51' W 075°16'0 0.0
2015-Mar-23 09:33N 39°51' W 075°16'3 3.0
2015-Mar-23 08:33N 39°51' W 075°19'  
Track history (hours):
 
Tides and Currents Weather Stations Pressure Air Temp Water Temp Dewpoint Dewpoint Depression Visibility Wind Speed Wind Dir Waves Ship Positions

Capt. Harry

Owner: Wilmington Tug, Inc., New Castle, DE. More information available from US FCC via Universal Licensing System and Coast Guard Vessel Documentation Center.

Last reported at 2015-Apr-02 07:34 UTC. Time now 2015-Apr-02 07:50 UTC.
Position N 39°53' W 075°10'.

Type: Tug. MMSI: 367012530.

Date/timePositionNaut miles runAvg speedWind from/ knotsBaromVisibWave heightAir tempDewpointWater temp
2015-Apr-02 07:34N 39°53' W 075°10'1 1.1
2015-Apr-02 06:33N 39°53' W 075°11'0 0.0
2015-Apr-02 05:33N 39°53' W 075°11'0 0.0
2015-Apr-02 04:34N 39°53' W 075°11'0 0.0
2015-Apr-02 03:34N 39°53' W 075°11'0 0.0
2015-Apr-02 02:33N 39°53' W 075°11'0 0.0
2015-Apr-02 01:33N 39°53' W 075°11'7 6.6
2015-Apr-02 00:33N 39°51' W 075°19'1 0.8
2015-Apr-01 23:33N 39°51' W 075°20'3 3.4
2015-Apr-01 22:33N 39°51' W 075°16'0 0.0
2015-Apr-01 21:33N 39°51' W 075°16'0 0.0
2015-Apr-01 20:33N 39°51' W 075°16'0 0.0
2015-Apr-01 19:33N 39°51' W 075°16'0 0.3
2015-Apr-01 18:33N 39°51' W 075°16'1 1.2
2015-Apr-01 17:31N 39°51' W 075°18'6 6.0
2015-Apr-01 16:33N 39°48' W 075°25'7 6.6
2015-Apr-01 15:33N 39°43' W 075°30'1 0.8
2015-Apr-01 14:33N 39°43' W 075°31'0 0.0
2015-Apr-01 13:33N 39°43' W 075°31'0 0.0
2015-Apr-01 12:33N 39°43' W 075°31'0 0.0
2015-Apr-01 11:33N 39°43' W 075°31'0 0.3
2015-Apr-01 10:33N 39°43' W 075°31'0 0.0
2015-Apr-01 09:33N 39°43' W 075°31'0 0.0
2015-Apr-01 08:33N 39°43' W 075°31'0 0.0
2015-Apr-01 07:33N 39°43' W 075°31'0 0.0
2015-Apr-01 06:33N 39°43' W 075°31'8 7.8
2015-Apr-01 05:33N 39°49' W 075°24'4 4.0
2015-Apr-01 04:33N 39°51' W 075°20'3 2.6
2015-Apr-01 03:33N 39°49' W 075°23'7 6.8
2015-Apr-01 02:33N 39°45' W 075°29'2 2.2
2015-Apr-01 01:33N 39°43' W 075°31'0 0.0
2015-Apr-01 00:33N 39°43' W 075°31'0 0.0
2015-Mar-31 23:33N 39°43' W 075°31'0 0.0
2015-Mar-31 22:33N 39°43' W 075°31'0 0.0
2015-Mar-31 21:33N 39°43' W 075°31'0 0.0
2015-Mar-31 20:33N 39°43' W 075°31'0 0.0
2015-Mar-31 19:33N 39°43' W 075°31'0 0.0
2015-Mar-31 18:33N 39°43' W 075°31'0 0.0
2015-Mar-31 17:33N 39°43' W 075°31'0 0.2
2015-Mar-31 16:33N 39°43' W 075°31'0 0.2
2015-Mar-31 15:33N 39°43' W 075°31'0 0.0
2015-Mar-31 14:33N 39°43' W 075°31'5 5.3
2015-Mar-31 13:33N 39°47' W 075°27'9 8.6
2015-Mar-31 12:33N 39°51' W 075°17'1 0.7
2015-Mar-31 11:33N 39°51' W 075°16'3 2.9
2015-Mar-31 10:33N 39°51' W 075°19'0 0.0
2015-Mar-31 09:33N 39°51' W 075°19'1 0.8
2015-Mar-31 08:33N 39°51' W 075°20'3 3.5
2015-Mar-31 07:33N 39°51' W 075°16'0 0.0
2015-Mar-31 06:33N 39°51' W 075°16'0 0.0
2015-Mar-31 05:33N 39°51' W 075°16'0 0.3
2015-Mar-31 04:33N 39°51' W 075°16'0 0.3
2015-Mar-31 03:33N 39°51' W 075°16'0 0.0
2015-Mar-31 02:33N 39°51' W 075°16'0 0.0
2015-Mar-31 01:33N 39°51' W 075°16'0 0.0
2015-Mar-31 00:33N 39°51' W 075°16'0 0.0
2015-Mar-30 23:33N 39°51' W 075°16'0 0.0
2015-Mar-30 22:33N 39°51' W 075°16'0 0.2
2015-Mar-30 21:33N 39°51' W 075°16'0 0.1
2015-Mar-30 20:33N 39°51' W 075°16'8 8.3
2015-Mar-30 19:33N 39°57' W 075°08'3 2.8
2015-Mar-30 18:34N 39°59' W 075°06'0 0.0
2015-Mar-30 17:33N 39°59' W 075°06'0 0.0
2015-Mar-30 16:33N 39°59' W 075°06'0 0.0
2015-Mar-30 15:33N 39°59' W 075°06'7 6.9
2015-Mar-30 14:33N 39°53' W 075°11'0 0.0
2015-Mar-30 13:33N 39°53' W 075°11'0 0.0
2015-Mar-30 12:34N 39°53' W 075°11'0 0.0
2015-Mar-30 11:33N 39°53' W 075°11'1 1.2
2015-Mar-30 10:34N 39°53' W 075°10'1 1.3
2015-Mar-30 09:34N 39°53' W 075°11'0 0.2
2015-Mar-30 08:33N 39°53' W 075°11'0 0.0
2015-Mar-30 07:33N 39°53' W 075°11'0 0.0
2015-Mar-30 06:33N 39°53' W 075°11'0 0.0
2015-Mar-30 05:34N 39°53' W 075°11'0 0.0
2015-Mar-30 04:33N 39°53' W 075°11'0 0.0
2015-Mar-30 03:33N 39°53' W 075°11'0 0.0
2015-Mar-30 02:33N 39°53' W 075°11'0 0.0
2015-Mar-30 01:33N 39°53' W 075°11'0 0.0
2015-Mar-30 00:33N 39°53' W 075°11'3 2.8
2015-Mar-29 23:33N 39°54' W 075°08'5 4.6
2015-Mar-29 22:33N 39°59' W 075°06'4 4.5
2015-Mar-29 21:33N 39°54' W 075°08'5 5.4
2015-Mar-29 20:33N 39°52' W 075°14'2 1.7
2015-Mar-29 19:33N 39°51' W 075°16'0 0.0
2015-Mar-29 18:33N 39°51' W 075°16'0 0.0
2015-Mar-29 17:33N 39°51' W 075°16'0 0.0
2015-Mar-29 16:33N 39°51' W 075°16'0 0.0
2015-Mar-29 15:33N 39°51' W 075°16'0 0.0
2015-Mar-29 14:33N 39°51' W 075°16'0 0.0
2015-Mar-29 13:33N 39°51' W 075°16'0 0.0
2015-Mar-29 12:33N 39°51' W 075°16'0 0.0
2015-Mar-29 11:33N 39°51' W 075°16'0 0.0
2015-Mar-29 10:33N 39°51' W 075°16'0 0.0
2015-Mar-29 09:33N 39°51' W 075°16'2 1.7
2015-Mar-29 08:33N 39°51' W 075°14'3 2.7
2015-Mar-29 07:33N 39°53' W 075°11'0 0.0
2015-Mar-29 06:33N 39°53' W 075°11'0 0.0
2015-Mar-29 05:33N 39°53' W 075°11'0 0.0
2015-Mar-29 04:33N 39°53' W 075°11'0 0.0
2015-Mar-29 03:33N 39°53' W 075°11'0 0.0
2015-Mar-29 02:33N 39°53' W 075°11'0 0.0
2015-Mar-29 01:33N 39°53' W 075°11'0 0.0
2015-Mar-29 00:33N 39°53' W 075°11'0 0.0
2015-Mar-28 23:33N 39°53' W 075°11'1 1.1
2015-Mar-28 22:33N 39°54' W 075°12'4 4.2
2015-Mar-28 21:33N 39°51' W 075°17'2 2.1
2015-Mar-28 20:33N 39°51' W 075°19'5 4.7
2015-Mar-28 19:33N 39°49' W 075°24'0 0.4
2015-Mar-28 18:33N 39°49' W 075°25'0 0.0
2015-Mar-28 17:33N 39°49' W 075°25'0 0.0
2015-Mar-28 16:33N 39°49' W 075°25'0 0.0
2015-Mar-28 15:33N 39°49' W 075°25'0 0.0
2015-Mar-28 14:33N 39°49' W 075°25'0 0.0
2015-Mar-28 13:33N 39°49' W 075°25'0 0.0
2015-Mar-28 12:33N 39°49' W 075°25'0 0.0
2015-Mar-28 11:33N 39°49' W 075°25'0 0.0
2015-Mar-28 10:33N 39°49' W 075°25'0 0.0
2015-Mar-28 09:33N 39°49' W 075°25'0 0.0
2015-Mar-28 08:33N 39°49' W 075°25'0 0.0
2015-Mar-28 07:33N 39°49' W 075°25'0 0.1
2015-Mar-28 06:33N 39°49' W 075°25'0 0.1
2015-Mar-28 05:33N 39°49' W 075°25'0 0.0
2015-Mar-28 04:33N 39°49' W 075°25'0 0.0
2015-Mar-28 03:33N 39°49' W 075°25'0 0.0
2015-Mar-28 02:33N 39°49' W 075°25'0 0.0
2015-Mar-28 01:33N 39°49' W 075°25'0 0.4
2015-Mar-28 00:33N 39°49' W 075°24'0 0.4
2015-Mar-27 23:33N 39°49' W 075°25'0 0.0
2015-Mar-27 22:33N 39°49' W 075°25'0 0.0
2015-Mar-27 21:33N 39°49' W 075°25'0 0.0
2015-Mar-27 20:33N 39°49' W 075°25'0 0.0
2015-Mar-27 19:33N 39°49' W 075°25'0 0.0
2015-Mar-27 18:33N 39°49' W 075°25'0 0.0
2015-Mar-27 17:33N 39°49' W 075°25'0 0.0
2015-Mar-27 16:34N 39°49' W 075°25'0 0.0
2015-Mar-27 15:34N 39°49' W 075°25'0 0.0
2015-Mar-27 14:34N 39°49' W 075°25'0 0.0
2015-Mar-27 13:33N 39°49' W 075°25'0 0.0
2015-Mar-27 12:34N 39°49' W 075°25'0 0.0
2015-Mar-27 11:33N 39°49' W 075°25'4 4.2
2015-Mar-27 10:33N 39°51' W 075°20'1 1.4
2015-Mar-27 09:33N 39°50' W 075°22'3 2.8
2015-Mar-27 08:33N 39°49' W 075°25'0 0.0
2015-Mar-27 07:33N 39°49' W 075°25'0 0.2
2015-Mar-27 06:33N 39°49' W 075°25'0 0.2
2015-Mar-27 05:33N 39°49' W 075°25'0 0.0
2015-Mar-27 04:33N 39°49' W 075°25'0 0.0
2015-Mar-27 03:33N 39°49' W 075°25'0 0.0
2015-Mar-27 02:34N 39°49' W 075°25'0 0.0
2015-Mar-27 01:33N 39°49' W 075°25'4 3.5
2015-Mar-27 00:33N 39°51' W 075°21'1 1.0
2015-Mar-26 23:33N 39°51' W 075°20'3 3.3
2015-Mar-26 22:33N 39°51' W 075°16'0 0.0
2015-Mar-26 21:33N 39°51' W 075°16'0 0.0
2015-Mar-26 20:33N 39°51' W 075°16'0 0.0
2015-Mar-26 19:33N 39°51' W 075°16'0 0.0
2015-Mar-26 18:33N 39°51' W 075°16'0 0.0
2015-Mar-26 17:33N 39°51' W 075°16'0 0.0
2015-Mar-26 16:33N 39°51' W 075°16'0 0.2
2015-Mar-26 15:33N 39°51' W 075°16'4 4.1
2015-Mar-26 14:33N 39°53' W 075°11'0 0.0
2015-Mar-26 13:33N 39°53' W 075°11'0 0.0
2015-Mar-26 12:34N 39°53' W 075°11'0 0.0
2015-Mar-26 11:34N 39°53' W 075°11'0 0.0
2015-Mar-26 10:34N 39°53' W 075°11'0 0.0
2015-Mar-26 09:34N 39°53' W 075°11'0 0.0
2015-Mar-26 08:34N 39°53' W 075°11'0 0.0
2015-Mar-26 07:34N 39°53' W 075°11'0 0.0
2015-Mar-26 06:34N 39°53' W 075°11'0 0.0
2015-Mar-26 05:34N 39°53' W 075°11'0 0.0
2015-Mar-26 04:34N 39°53' W 075°11'0 0.0
2015-Mar-26 03:34N 39°53' W 075°11'0 0.0
2015-Mar-26 02:34N 39°53' W 075°11'0 0.0
2015-Mar-26 01:34N 39°53' W 075°11'0 0.0
2015-Mar-26 00:34N 39°53' W 075°11'0 0.0
2015-Mar-25 23:33N 39°53' W 075°11'0 0.0
2015-Mar-25 22:33N 39°53' W 075°11'0 0.0
2015-Mar-25 21:33N 39°53' W 075°11'0 0.0
2015-Mar-25 20:34N 39°53' W 075°11'0 0.0
2015-Mar-25 19:34N 39°53' W 075°11'0 0.0
2015-Mar-25 18:34N 39°53' W 075°11'0 0.0
2015-Mar-25 17:34N 39°53' W 075°11'0 0.0
2015-Mar-25 16:34N 39°53' W 075°11'0 0.0
2015-Mar-25 15:34N 39°53' W 075°11'4 0.1
2015-Mar-24 04:33N 39°56' W 075°08'1 1.1
2015-Mar-24 03:33N 39°55' W 075°08'4 3.7
2015-Mar-24 02:33N 39°59' W 075°06'0 0.0
2015-Mar-24 01:33N 39°59' W 075°06'0 0.0
2015-Mar-24 00:33N 39°59' W 075°06'0 0.0
2015-Mar-23 23:33N 39°59' W 075°06'0 0.0
2015-Mar-23 22:33N 39°59' W 075°06'1 0.6
2015-Mar-23 21:33N 39°58' W 075°07'6 5.8
2015-Mar-23 20:33N 39°53' W 075°10'5 5.1
2015-Mar-23 19:33N 39°51' W 075°16'0 0.0
2015-Mar-23 18:32N 39°51' W 075°16'0 0.0
2015-Mar-23 17:33N 39°51' W 075°16'0 0.0
2015-Mar-23 16:33N 39°51' W 075°16'0 0.0
2015-Mar-23 15:34N 39°51' W 075°16'0 0.0
2015-Mar-23 14:34N 39°51' W 075°16'0 0.0
2015-Mar-23 13:33N 39°51' W 075°16'0 0.0
2015-Mar-23 12:33N 39°51' W 075°16'0 0.0
2015-Mar-23 11:33N 39°51' W 075°16'0 0.0
2015-Mar-23 10:33N 39°51' W 075°16'0 0.0
2015-Mar-23 09:33N 39°51' W 075°16'3 3.0
2015-Mar-23 08:33N 39°51' W 075°19'  

Dump ship's entire track history